sensor_id;sensor_type;location;lat;lon;timestamp;pressure;altitude;pressure_sealevel;temperature;humidity
56074;BME280;41950;55.840;37.442;2024-01-30T00:01:55;100745.72;;;-0.97;96.64
56074;BME280;41950;55.840;37.442;2024-01-30T00:04:21;100712.47;;;-1.17;96.68
56074;BME280;41950;55.840;37.442;2024-01-30T00:06:47;100716.03;;;-1.14;96.85
56074;BME280;41950;55.840;37.442;2024-01-30T00:09:12;100751.75;;;-0.95;96.65
56074;BME280;41950;55.840;37.442;2024-01-30T00:11:39;100724.88;;;-1.07;96.56
56074;BME280;41950;55.840;37.442;2024-01-30T00:14:05;100746.72;;;-0.93;96.36
56074;BME280;41950;55.840;37.442;2024-01-30T00:16:31;100746.66;;;-0.95;96.20
56074;BME280;41950;55.840;37.442;2024-01-30T00:18:57;100714.44;;;-1.12;96.34
56074;BME280;41950;55.840;37.442;2024-01-30T00:21:23;100716.28;;;-1.09;96.29
56074;BME280;41950;55.840;37.442;2024-01-30T00:23:49;100732.91;;;-0.98;96.58
56074;BME280;41950;55.840;37.442;2024-01-30T00:26:15;100736.28;;;-0.99;96.43
56074;BME280;41950;55.840;37.442;2024-01-30T00:28:42;100736.19;;;-1.01;96.28
56074;BME280;41950;55.840;37.442;2024-01-30T00:31:08;100681.56;;;-1.25;96.47
56074;BME280;41950;55.840;37.442;2024-01-30T00:33:38;100549.97;;;-2.00;96.47
56074;BME280;41950;55.840;37.442;2024-01-30T00:36:05;100616.38;;;-1.59;96.35
56074;BME280;41950;55.840;37.442;2024-01-30T00:38:32;100729.50;;;-0.99;96.68
56074;BME280;41950;55.840;37.442;2024-01-30T00:40:58;100652.91;;;-1.39;96.58
56074;BME280;41950;55.840;37.442;2024-01-30T00:43:23;100732.25;;;-0.94;96.65
56074;BME280;41950;55.840;37.442;2024-01-30T00:45:51;100731.38;;;-0.95;96.46
56074;BME280;41950;55.840;37.442;2024-01-30T00:48:20;100715.00;;;-1.00;96.44
56074;BME280;41950;55.840;37.442;2024-01-30T00:50:46;100691.56;;;-1.10;96.26
56074;BME280;41950;55.840;37.442;2024-01-30T00:53:12;100713.53;;;-0.95;95.96
56074;BME280;41950;55.840;37.442;2024-01-30T00:55:37;100728.28;;;-0.87;96.03
56074;BME280;41950;55.840;37.442;2024-01-30T00:58:03;100676.88;;;-1.16;96.07
56074;BME280;41950;55.840;37.442;2024-01-30T01:00:29;100686.59;;;-1.09;96.19
56074;BME280;41950;55.840;37.442;2024-01-30T01:02:55;100720.78;;;-0.84;95.90
56074;BME280;41950;55.840;37.442;2024-01-30T01:05:21;100722.19;;;-0.91;95.85
56074;BME280;41950;55.840;37.442;2024-01-30T01:07:47;100694.34;;;-1.06;95.86
56074;BME280;41950;55.840;37.442;2024-01-30T01:10:16;100717.91;;;-0.92;96.03
56074;BME280;41950;55.840;37.442;2024-01-30T01:12:42;100663.88;;;-1.22;96.21
56074;BME280;41950;55.840;37.442;2024-01-30T01:15:08;100663.88;;;-1.22;96.35
56074;BME280;41950;55.840;37.442;2024-01-30T01:17:38;100714.75;;;-0.86;96.31
56074;BME280;41950;55.840;37.442;2024-01-30T01:20:04;100690.34;;;-1.01;96.18
56074;BME280;41950;55.840;37.442;2024-01-30T01:22:34;100700.06;;;-0.92;96.15
56074;BME280;41950;55.840;37.442;2024-01-30T01:25:00;100668.75;;;-1.09;96.00
56074;BME280;41950;55.840;37.442;2024-01-30T01:27:26;100686.31;;;-0.96;96.09
56074;BME280;41950;55.840;37.442;2024-01-30T01:29:52;100671.56;;;-1.03;96.02
56074;BME280;41950;55.840;37.442;2024-01-30T01:32:19;100655.13;;;-1.09;95.92
56074;BME280;41950;55.840;37.442;2024-01-30T01:34:45;100676.13;;;-0.96;95.79
56074;BME280;41950;55.840;37.442;2024-01-30T01:37:11;100677.66;;;-0.99;95.96
56074;BME280;41950;55.840;37.442;2024-01-30T01:39:36;100674.66;;;-0.90;96.28
56074;BME280;41950;55.840;37.442;2024-01-30T01:42:02;100678.00;;;-0.91;96.40
56074;BME280;41950;55.840;37.442;2024-01-30T01:44:28;100656.28;;;-1.03;96.26
56074;BME280;41950;55.840;37.442;2024-01-30T01:46:54;100673.84;;;-0.89;96.25
56074;BME280;41950;55.840;37.442;2024-01-30T01:49:22;100683.66;;;-0.79;95.97
56074;BME280;41950;55.840;37.442;2024-01-30T01:51:51;100681.25;;;-0.76;96.04
56074;BME280;41950;55.840;37.442;2024-01-30T01:54:19;100693.31;;;-0.72;96.04
56074;BME280;41950;55.840;37.442;2024-01-30T01:56:45;100575.72;;;-1.38;95.85
56074;BME280;41950;55.840;37.442;2024-01-30T01:59:11;100658.63;;;-0.88;95.91
56074;BME280;41950;55.840;37.442;2024-01-30T02:01:37;100657.16;;;-1.02;96.09
56074;BME280;41950;55.840;37.442;2024-01-30T02:04:03;100701.09;;;-0.69;95.99
56074;BME280;41950;55.840;37.442;2024-01-30T02:06:30;100695.06;;;-0.71;95.82
56074;BME280;41950;55.840;37.442;2024-01-30T02:08:56;100688.59;;;-0.63;95.54
56074;BME280;41950;55.840;37.442;2024-01-30T02:11:22;100693.56;;;-0.66;95.63
56074;BME280;41950;55.840;37.442;2024-01-30T02:13:50;100688.53;;;-0.65;95.72
56074;BME280;41950;55.840;37.442;2024-01-30T02:16:16;100688.47;;;-0.66;95.85
56074;BME280;41950;55.840;37.442;2024-01-30T02:18:43;100649.28;;;-0.87;95.76
56074;BME280;41950;55.840;37.442;2024-01-30T02:21:32;100667.81;;;-0.72;95.64
56074;BME280;41950;55.840;37.442;2024-01-30T02:23:58;100675.25;;;-0.57;95.52
56074;BME280;41950;55.840;37.442;2024-01-30T02:26:26;100678.53;;;-0.60;95.48
56074;BME280;41950;55.840;37.442;2024-01-30T02:28:51;100642.88;;;-0.79;95.59
56074;BME280;41950;55.840;37.442;2024-01-30T02:31:17;100679.75;;;-0.52;95.81
56074;BME280;41950;55.840;37.442;2024-01-30T02:33:43;100672.03;;;-0.53;95.51
56074;BME280;41950;55.840;37.442;2024-01-30T02:36:09;100687.72;;;-0.44;95.35
56074;BME280;41950;55.840;37.442;2024-01-30T02:38:34;100661.69;;;-0.56;95.22
56074;BME280;41950;55.840;37.442;2024-01-30T02:41:00;100680.47;;;-0.35;95.15
56074;BME280;41950;55.840;37.442;2024-01-30T02:43:26;100665.53;;;-0.47;94.82
56074;BME280;41950;55.840;37.442;2024-01-30T02:45:51;100680.25;;;-0.40;94.78
56074;BME280;41950;55.840;37.442;2024-01-30T02:48:17;100681.00;;;-0.42;94.66
56074;BME280;41950;55.840;37.442;2024-01-30T02:50:43;100680.13;;;-0.43;94.89
56074;BME280;41950;55.840;37.442;2024-01-30T02:53:08;100641.97;;;-0.60;94.99
56074;BME280;41950;55.840;37.442;2024-01-30T02:55:34;100678.66;;;-0.38;94.75
56074;BME280;41950;55.840;37.442;2024-01-30T02:58:00;100635.00;;;-0.65;94.61
56074;BME280;41950;55.840;37.442;2024-01-30T03:00:26;100674.34;;;-0.39;94.72
56074;BME280;41950;55.840;37.442;2024-01-30T03:02:51;100693.53;;;-0.27;94.86
56074;BME280;41950;55.840;37.442;2024-01-30T03:05:17;100678.72;;;-0.36;94.64
56074;BME280;41950;55.840;37.442;2024-01-30T03:07:43;100661.34;;;-0.45;94.28
56074;BME280;41950;55.840;37.442;2024-01-30T03:10:09;100695.38;;;-0.25;94.29
56074;BME280;41950;55.840;37.442;2024-01-30T03:12:34;100644.72;;;-0.56;94.06
56074;BME280;41950;55.840;37.442;2024-01-30T03:15:00;100693.41;;;-0.31;94.34
56074;BME280;41950;55.840;37.442;2024-01-30T03:17:26;100704.00;;;-0.21;94.14
56074;BME280;41950;55.840;37.442;2024-01-30T03:19:52;100707.44;;;-0.21;94.06
56074;BME280;41950;55.840;37.442;2024-01-30T03:22:17;100667.25;;;-0.46;94.20
56074;BME280;41950;55.840;37.442;2024-01-30T03:24:43;100711.84;;;-0.17;94.66
56074;BME280;41950;55.840;37.442;2024-01-30T03:27:09;100712.91;;;-0.12;94.38
56074;BME280;41950;55.840;37.442;2024-01-30T03:29:35;100639.91;;;-0.50;93.79
56074;BME280;41950;55.840;37.442;2024-01-30T03:32:01;100677.63;;;-0.22;93.91
56074;BME280;41950;55.840;37.442;2024-01-30T03:34:27;100707.94;;;-0.09;93.88
56074;BME280;41950;55.840;37.442;2024-01-30T03:36:53;100699.28;;;-0.12;94.07
56074;BME280;41950;55.840;37.442;2024-01-30T03:39:18;100676.00;;;-0.20;93.84
56074;BME280;41950;55.840;37.442;2024-01-30T03:41:44;100710.47;;;-0.09;93.95
56074;BME280;41950;55.840;37.442;2024-01-30T03:44:10;100667.63;;;-0.37;93.78
56074;BME280;41950;55.840;37.442;2024-01-30T03:46:36;100718.19;;;-0.07;93.89
56074;BME280;41950;55.840;37.442;2024-01-30T03:49:02;100705.13;;;-0.15;94.00
56074;BME280;41950;55.840;37.442;2024-01-30T03:51:29;100722.78;;;0.00;93.94
56074;BME280;41950;55.840;37.442;2024-01-30T03:53:55;100688.91;;;-0.17;93.65
56074;BME280;41950;55.840;37.442;2024-01-30T03:56:21;100723.78;;;0.04;93.85
56074;BME280;41950;55.840;37.442;2024-01-30T03:58:47;100728.94;;;0.05;93.84
56074;BME280;41950;55.840;37.442;2024-01-30T04:01:14;100723.97;;;0.08;93.92
56074;BME280;41950;55.840;37.442;2024-01-30T04:03:40;100705.38;;;-0.09;93.44
56074;BME280;41950;55.840;37.442;2024-01-30T04:06:06;100723.09;;;0.08;93.45
56074;BME280;41950;55.840;37.442;2024-01-30T04:08:32;100671.78;;;-0.19;93.52
56074;BME280;41950;55.840;37.442;2024-01-30T04:10:58;100725.06;;;0.15;93.58
56074;BME280;41950;55.840;37.442;2024-01-30T04:13:23;100716.59;;;0.16;93.47
56074;BME280;41950;55.840;37.442;2024-01-30T04:15:49;100731.00;;;0.14;93.08
56074;BME280;41950;55.840;37.442;2024-01-30T04:18:14;100680.50;;;-0.14;93.33
56074;BME280;41950;55.840;37.442;2024-01-30T04:20:40;100551.94;;;-0.80;93.26
56074;BME280;41950;55.840;37.442;2024-01-30T04:23:06;100701.09;;;0.11;93.36
56074;BME280;41950;55.840;37.442;2024-01-30T04:25:31;100681.94;;;0.00;93.03
56074;BME280;41950;55.840;37.442;2024-01-30T04:27:57;100701.91;;;0.10;93.20
56074;BME280;41950;55.840;37.442;2024-01-30T04:30:23;100662.75;;;-0.11;92.85
56074;BME280;41950;55.840;37.442;2024-01-30T04:32:48;100661.00;;;-0.12;93.27
56074;BME280;41950;55.840;37.442;2024-01-30T04:35:14;100683.75;;;0.03;93.33
56074;BME280;41950;55.840;37.442;2024-01-30T04:37:40;100701.91;;;0.10;93.22
56074;BME280;41950;55.840;37.442;2024-01-30T04:40:06;100677.78;;;0.02;93.41
56074;BME280;41950;55.840;37.442;2024-01-30T04:42:31;100722.28;;;0.29;93.57
56074;BME280;41950;55.840;37.442;2024-01-30T04:44:57;100688.97;;;0.06;93.37
56074;BME280;41950;55.840;37.442;2024-01-30T04:47:24;100700.53;;;0.18;93.48
56074;BME280;41950;55.840;37.442;2024-01-30T04:49:51;100674.53;;;0.06;93.18
56074;BME280;41950;55.840;37.442;2024-01-30T04:52:18;100712.06;;;0.29;92.98
56074;BME280;41950;55.840;37.442;2024-01-30T04:54:44;100720.72;;;0.33;93.24
56074;BME280;41950;55.840;37.442;2024-01-30T04:57:10;100716.50;;;0.34;93.06
56074;BME280;41950;55.840;37.442;2024-01-30T04:59:40;100678.00;;;0.08;92.79
56074;BME280;41950;55.840;37.442;2024-01-30T05:02:06;100663.28;;;0.01;93.05
56074;BME280;41950;55.840;37.442;2024-01-30T05:04:32;100612.06;;;-0.24;92.95
56074;BME280;41950;55.840;37.442;2024-01-30T05:06:58;100650.13;;;-0.08;92.94
56074;BME280;41950;55.840;37.442;2024-01-30T05:09:23;100684.16;;;0.13;93.07
56074;BME280;41950;55.840;37.442;2024-01-30T05:11:49;100653.59;;;-0.06;93.24
56074;BME280;41950;55.840;37.442;2024-01-30T05:14:15;100698.78;;;0.17;93.49
56074;BME280;41950;55.840;37.442;2024-01-30T05:16:41;100710.41;;;0.30;93.37
56074;BME280;41950;55.840;37.442;2024-01-30T05:19:13;100706.03;;;0.27;93.63
56074;BME280;41950;55.840;37.442;2024-01-30T05:21:39;100682.50;;;0.14;93.25
56074;BME280;41950;55.840;37.442;2024-01-30T05:24:05;100677.16;;;0.08;93.19
56074;BME280;41950;55.840;37.442;2024-01-30T05:26:31;100721.09;;;0.42;93.57
56074;BME280;41950;55.840;37.442;2024-01-30T05:28:57;100688.59;;;0.17;93.17
56074;BME280;41950;55.840;37.442;2024-01-30T05:31:22;100691.50;;;0.26;93.29
56074;BME280;41950;55.840;37.442;2024-01-30T05:33:48;100739.25;;;0.50;92.66
56074;BME280;41950;55.840;37.442;2024-01-30T05:36:14;100702.69;;;0.28;92.73
56074;BME280;41950;55.840;37.442;2024-01-30T05:38:39;100722.31;;;0.52;92.62
56074;BME280;41950;55.840;37.442;2024-01-30T05:41:05;100702.34;;;0.42;92.83
56074;BME280;41950;55.840;37.442;2024-01-30T05:43:31;100704.91;;;0.42;92.78
56074;BME280;41950;55.840;37.442;2024-01-30T05:45:57;100729.97;;;0.52;92.58
56074;BME280;41950;55.840;37.442;2024-01-30T05:48:22;100741.88;;;0.51;92.96
56074;BME280;41950;55.840;37.442;2024-01-30T05:50:48;100740.25;;;0.53;93.01
56074;BME280;41950;55.840;37.442;2024-01-30T05:53:14;100725.31;;;0.42;92.97
56074;BME280;41950;55.840;37.442;2024-01-30T05:55:39;100729.78;;;0.47;92.81
56074;BME280;41950;55.840;37.442;2024-01-30T05:58:05;100746.13;;;0.51;92.85
56074;BME280;41950;55.840;37.442;2024-01-30T06:00:31;100704.34;;;0.28;92.91
56074;BME280;41950;55.840;37.442;2024-01-30T06:02:57;100728.13;;;0.48;93.00
56074;BME280;41950;55.840;37.442;2024-01-30T06:05:22;100740.06;;;0.49;92.70
56074;BME280;41950;55.840;37.442;2024-01-30T06:07:48;100721.59;;;0.34;92.77
56074;BME280;41950;55.840;37.442;2024-01-30T06:10:14;100716.38;;;0.30;92.89
56074;BME280;41950;55.840;37.442;2024-01-30T06:12:40;100761.00;;;0.61;93.18
56074;BME280;41950;55.840;37.442;2024-01-30T06:15:06;100680.13;;;0.18;92.61
56074;BME280;41950;55.840;37.442;2024-01-30T06:17:32;100724.75;;;0.49;92.45
56074;BME280;41950;55.840;37.442;2024-01-30T06:19:59;100767.28;;;0.69;92.58
56074;BME280;41950;55.840;37.442;2024-01-30T06:22:24;100728.34;;;0.54;92.64
56074;BME280;41950;55.840;37.442;2024-01-30T06:24:50;100768.28;;;0.73;92.84
56074;BME280;41950;55.840;37.442;2024-01-30T06:27:16;100769.44;;;0.81;92.41
56074;BME280;41950;55.840;37.442;2024-01-30T06:29:43;100723.13;;;0.51;92.13
56074;BME280;41950;55.840;37.442;2024-01-30T06:32:09;100773.84;;;0.83;91.97
56074;BME280;41950;55.840;37.442;2024-01-30T06:34:34;100688.16;;;0.27;92.21
56074;BME280;41950;55.840;37.442;2024-01-30T06:37:00;100675.13;;;0.21;92.10
56074;BME280;41950;55.840;37.442;2024-01-30T06:39:26;100735.91;;;0.51;92.01
56074;BME280;41950;55.840;37.442;2024-01-30T06:41:52;100767.84;;;0.83;92.01
56074;BME280;41950;55.840;37.442;2024-01-30T06:44:17;100760.84;;;0.79;92.25
56074;BME280;41950;55.840;37.442;2024-01-30T06:46:43;100745.09;;;0.68;91.78
56074;BME280;41950;55.840;37.442;2024-01-30T06:49:09;100788.47;;;0.87;91.64
56074;BME280;41950;55.840;37.442;2024-01-30T06:51:34;100778.13;;;0.84;91.49
56074;BME280;41950;55.840;37.442;2024-01-30T06:54:00;100703.31;;;0.45;91.20
56074;BME280;41950;55.840;37.442;2024-01-30T06:56:26;100730.53;;;0.66;91.40
56074;BME280;41950;55.840;37.442;2024-01-30T06:58:51;100745.34;;;0.74;91.19
56074;BME280;41950;55.840;37.442;2024-01-30T07:01:17;100744.34;;;0.71;91.33
56074;BME280;41950;55.840;37.442;2024-01-30T07:03:43;100779.19;;;0.89;91.19
56074;BME280;41950;55.840;37.442;2024-01-30T07:06:09;100780.00;;;0.88;91.05
56074;BME280;41950;55.840;37.442;2024-01-30T07:08:36;100796.59;;;1.00;91.28
56074;BME280;41950;55.840;37.442;2024-01-30T07:11:05;100737.31;;;0.65;91.03
56074;BME280;41950;55.840;37.442;2024-01-30T07:13:32;100787.78;;;0.91;91.13
56074;BME280;41950;55.840;37.442;2024-01-30T07:15:58;100795.63;;;0.96;90.79
56074;BME280;41950;55.840;37.442;2024-01-30T07:18:24;100778.34;;;0.90;91.02
56074;BME280;41950;55.840;37.442;2024-01-30T07:20:50;100786.81;;;1.10;90.94
56074;BME280;41950;55.840;37.442;2024-01-30T07:23:16;100798.03;;;1.14;90.78
56074;BME280;41950;55.840;37.442;2024-01-30T07:25:44;100777.56;;;1.14;90.66
56074;BME280;41950;55.840;37.442;2024-01-30T07:28:11;100787.69;;;1.11;90.45
56074;BME280;41950;55.840;37.442;2024-01-30T07:30:38;100790.66;;;1.01;90.39
56074;BME280;41950;55.840;37.442;2024-01-30T07:33:04;100785.16;;;0.90;90.75
56074;BME280;41950;55.840;37.442;2024-01-30T07:35:30;100804.50;;;1.06;90.22
56074;BME280;41950;55.840;37.442;2024-01-30T07:37:55;100784.56;;;0.97;90.56
56074;BME280;41950;55.840;37.442;2024-01-30T07:40:23;100760.41;;;0.89;90.57
56074;BME280;41950;55.840;37.442;2024-01-30T07:42:49;100784.25;;;1.10;90.13
56074;BME280;41950;55.840;37.442;2024-01-30T07:45:15;100801.97;;;1.28;90.38
56074;BME280;41950;55.840;37.442;2024-01-30T07:47:41;100820.91;;;1.33;89.69
56074;BME280;41950;55.840;37.442;2024-01-30T07:50:08;100791.50;;;1.22;89.76
56074;BME280;41950;55.840;37.442;2024-01-30T07:52:34;100816.59;;;1.32;89.25
56074;BME280;41950;55.840;37.442;2024-01-30T07:55:00;100784.31;;;1.12;89.40
56074;BME280;41950;55.840;37.442;2024-01-30T07:57:26;100807.19;;;1.31;89.50
56074;BME280;41950;55.840;37.442;2024-01-30T07:59:52;100806.44;;;1.34;89.25
56074;BME280;41950;55.840;37.442;2024-01-30T08:02:17;100796.94;;;1.31;89.60
56074;BME280;41950;55.840;37.442;2024-01-30T08:04:43;100806.47;;;1.35;89.12
56074;BME280;41950;55.840;37.442;2024-01-30T08:07:09;100809.09;;;1.37;89.24
56074;BME280;41950;55.840;37.442;2024-01-30T08:09:34;100794.16;;;1.25;89.22
56074;BME280;41950;55.840;37.442;2024-01-30T08:12:00;100796.09;;;1.31;89.33
56074;BME280;41950;55.840;37.442;2024-01-30T08:14:26;100761.81;;;1.03;89.08
56074;BME280;41950;55.840;37.442;2024-01-30T08:16:53;100740.66;;;0.85;89.24
56074;BME280;41950;55.840;37.442;2024-01-30T08:19:19;100750.25;;;0.90;89.58
56074;BME280;41950;55.840;37.442;2024-01-30T08:21:44;100780.72;;;1.08;89.84
56074;BME280;41950;55.840;37.442;2024-01-30T08:24:10;100808.47;;;1.20;89.83
56074;BME280;41950;55.840;37.442;2024-01-30T08:26:36;100790.78;;;1.04;89.81
56074;BME280;41950;55.840;37.442;2024-01-30T08:29:02;100819.81;;;1.27;89.57
56074;BME280;41950;55.840;37.442;2024-01-30T08:31:28;100761.63;;;0.99;89.89
56074;BME280;41950;55.840;37.442;2024-01-30T08:33:53;100807.44;;;1.37;90.12
56074;BME280;41950;55.840;37.442;2024-01-30T08:36:20;100811.97;;;1.44;89.69
56074;BME280;41950;55.840;37.442;2024-01-30T08:38:45;100778.72;;;1.44;88.81
56074;BME280;41950;55.840;37.442;2024-01-30T08:41:12;100795.47;;;1.60;88.98
56074;BME280;41950;55.840;37.442;2024-01-30T08:43:38;100799.47;;;1.76;88.94
56074;BME280;41950;55.840;37.442;2024-01-30T08:46:04;100771.75;;;1.64;88.20
56074;BME280;41950;55.840;37.442;2024-01-30T08:48:29;100802.63;;;1.69;88.03
56074;BME280;41950;55.840;37.442;2024-01-30T08:50:55;100801.19;;;1.53;88.27
56074;BME280;41950;55.840;37.442;2024-01-30T08:53:21;100777.19;;;1.27;88.00
56074;BME280;41950;55.840;37.442;2024-01-30T08:55:46;100788.47;;;1.32;88.35
56074;BME280;41950;55.840;37.442;2024-01-30T08:58:12;100768.66;;;1.27;88.57
56074;BME280;41950;55.840;37.442;2024-01-30T09:00:38;100794.34;;;1.52;88.40
56074;BME280;41950;55.840;37.442;2024-01-30T09:03:04;100809.97;;;1.60;88.39
56074;BME280;41950;55.840;37.442;2024-01-30T09:05:30;100803.91;;;1.58;88.28
56074;BME280;41950;55.840;37.442;2024-01-30T09:07:55;100772.38;;;1.35;88.35
56074;BME280;41950;55.840;37.442;2024-01-30T09:10:23;100771.63;;;1.37;88.45
56074;BME280;41950;55.840;37.442;2024-01-30T09:12:49;100791.78;;;1.52;88.25
56074;BME280;41950;55.840;37.442;2024-01-30T09:15:15;100807.88;;;1.72;88.29
56074;BME280;41950;55.840;37.442;2024-01-30T09:17:41;100809.06;;;1.81;87.89
56074;BME280;41950;55.840;37.442;2024-01-30T09:20:07;100811.56;;;1.80;86.96
56074;BME280;41950;55.840;37.442;2024-01-30T09:22:34;100777.97;;;1.71;87.15
56074;BME280;41950;55.840;37.442;2024-01-30T09:25:00;100805.84;;;1.87;86.71
56074;BME280;41950;55.840;37.442;2024-01-30T09:27:25;100748.19;;;1.73;87.12
56074;BME280;41950;55.840;37.442;2024-01-30T09:29:51;100799.34;;;2.21;86.47
56074;BME280;41950;55.840;37.442;2024-01-30T09:32:17;100798.13;;;2.35;86.05
56074;BME280;41950;55.840;37.442;2024-01-30T09:34:43;100786.75;;;2.27;84.88
56074;BME280;41950;55.840;37.442;2024-01-30T09:37:09;100731.84;;;1.93;85.17
56074;BME280;41950;55.840;37.442;2024-01-30T09:39:35;100804.00;;;2.32;84.67
56074;BME280;41950;55.840;37.442;2024-01-30T09:42:05;100790.47;;;2.11;85.04
56074;BME280;41950;55.840;37.442;2024-01-30T09:44:37;100778.38;;;1.83;85.43
56074;BME280;41950;55.840;37.442;2024-01-30T09:47:03;100735.81;;;1.61;86.12
56074;BME280;41950;55.840;37.442;2024-01-30T09:49:34;100765.50;;;1.80;86.52
56074;BME280;41950;55.840;37.442;2024-01-30T09:52:05;100763.13;;;1.86;86.46
56074;BME280;41950;55.840;37.442;2024-01-30T09:54:31;100786.78;;;2.03;86.18
56074;BME280;41950;55.840;37.442;2024-01-30T09:56:58;100757.88;;;1.81;86.05
56074;BME280;41950;55.840;37.442;2024-01-30T09:59:23;100725.88;;;1.69;85.75
56074;BME280;41950;55.840;37.442;2024-01-30T10:01:50;100785.44;;;2.14;86.21
56074;BME280;41950;55.840;37.442;2024-01-30T10:04:16;100770.06;;;2.14;85.77
56074;BME280;41950;55.840;37.442;2024-01-30T10:06:42;100788.50;;;2.28;85.47
56074;BME280;41950;55.840;37.442;2024-01-30T10:09:08;100795.56;;;2.35;85.45
56074;BME280;41950;55.840;37.442;2024-01-30T10:11:36;100783.84;;;2.17;84.95
56074;BME280;41950;55.840;37.442;2024-01-30T10:14:02;100799.72;;;2.31;85.26
56074;BME280;41950;55.840;37.442;2024-01-30T10:16:28;100761.94;;;2.00;84.97
56074;BME280;41950;55.840;37.442;2024-01-30T10:18:53;100734.78;;;1.80;85.58
56074;BME280;41950;55.840;37.442;2024-01-30T10:21:19;100765.72;;;2.11;85.57
56074;BME280;41950;55.840;37.442;2024-01-30T10:23:45;100794.69;;;2.34;85.10
56074;BME280;41950;55.840;37.442;2024-01-30T10:26:11;100762.75;;;1.99;84.72
56074;BME280;41950;55.840;37.442;2024-01-30T10:28:37;100746.75;;;1.81;85.20
56074;BME280;41950;55.840;37.442;2024-01-30T10:31:02;100753.47;;;1.77;85.79
56074;BME280;41950;55.840;37.442;2024-01-30T10:33:32;100785.81;;;1.99;86.12
56074;BME280;41950;55.840;37.442;2024-01-30T10:36:02;100780.88;;;2.05;86.48
56074;BME280;41950;55.840;37.442;2024-01-30T10:38:29;100786.41;;;2.17;86.28
56074;BME280;41950;55.840;37.442;2024-01-30T10:41:01;100758.25;;;2.17;85.66
56074;BME280;41950;55.840;37.442;2024-01-30T10:43:36;100772.84;;;2.45;85.66
56074;BME280;41950;55.840;37.442;2024-01-30T10:46:18;100747.28;;;2.47;85.11
56074;BME280;41950;55.840;37.442;2024-01-30T10:48:59;100779.94;;;2.79;84.44
56074;BME280;41950;55.840;37.442;2024-01-30T10:51:26;100768.31;;;2.91;83.54
56074;BME280;41950;55.840;37.442;2024-01-30T10:53:52;100754.16;;;2.75;82.25
56074;BME280;41950;55.840;37.442;2024-01-30T10:56:22;100772.94;;;2.74;82.40
56074;BME280;41950;55.840;37.442;2024-01-30T10:58:50;100775.38;;;2.71;82.51
56074;BME280;41950;55.840;37.442;2024-01-30T11:01:19;100759.66;;;2.60;82.66
56074;BME280;41950;55.840;37.442;2024-01-30T11:03:45;100776.63;;;2.57;83.15
56074;BME280;41950;55.840;37.442;2024-01-30T11:06:11;100791.53;;;2.43;83.08
56074;BME280;41950;55.840;37.442;2024-01-30T11:08:44;100759.88;;;2.15;83.79
56074;BME280;41950;55.840;37.442;2024-01-30T11:11:10;100792.06;;;2.33;84.12
56074;BME280;41950;55.840;37.442;2024-01-30T11:13:36;100803.03;;;2.29;83.94
56074;BME280;41950;55.840;37.442;2024-01-30T11:16:03;100755.91;;;1.98;84.22
56074;BME280;41950;55.840;37.442;2024-01-30T11:18:31;100803.66;;;2.22;84.24
56074;BME280;41950;55.840;37.442;2024-01-30T11:20:59;100801.53;;;2.10;84.60
56074;BME280;41950;55.840;37.442;2024-01-30T11:23:28;100705.75;;;1.55;85.21
56074;BME280;41950;55.840;37.442;2024-01-30T11:25:55;100750.19;;;1.81;85.18
56074;BME280;41950;55.840;37.442;2024-01-30T11:28:21;100801.28;;;2.02;85.44
56074;BME280;41950;55.840;37.442;2024-01-30T11:30:47;100808.94;;;2.02;85.44
56074;BME280;41950;55.840;37.442;2024-01-30T11:33:27;100802.69;;;1.94;85.81
56074;BME280;41950;55.840;37.442;2024-01-30T11:35:57;100760.53;;;1.61;85.80
56074;BME280;41950;55.840;37.442;2024-01-30T11:38:25;100774.06;;;1.58;86.17
56074;BME280;41950;55.840;37.442;2024-01-30T11:40:53;100795.88;;;1.71;86.07
56074;BME280;41950;55.840;37.442;2024-01-30T11:43:20;100828.16;;;1.91;86.37
56074;BME280;41950;55.840;37.442;2024-01-30T11:45:45;100823.19;;;1.94;86.61
56074;BME280;41950;55.840;37.442;2024-01-30T11:48:12;100826.75;;;1.99;86.38
56074;BME280;41950;55.840;37.442;2024-01-30T11:50:39;100829.84;;;1.91;86.49
56074;BME280;41950;55.840;37.442;2024-01-30T11:53:05;100774.63;;;1.49;86.71
56074;BME280;41950;55.840;37.442;2024-01-30T11:55:32;100836.50;;;1.85;86.70
56074;BME280;41950;55.840;37.442;2024-01-30T11:57:58;100787.31;;;1.46;86.86
56074;BME280;41950;55.840;37.442;2024-01-30T12:00:25;100840.38;;;1.74;87.42
56074;BME280;41950;55.840;37.442;2024-01-30T12:02:52;100833.22;;;1.66;87.39
56074;BME280;41950;55.840;37.442;2024-01-30T12:05:27;100846.25;;;1.72;87.56
56074;BME280;41950;55.840;37.442;2024-01-30T12:07:54;100819.47;;;1.64;87.73
56074;BME280;41950;55.840;37.442;2024-01-30T12:10:20;100804.13;;;1.64;87.60
56074;BME280;41950;55.840;37.442;2024-01-30T12:12:47;100840.97;;;1.91;87.71
56074;BME280;41950;55.840;37.442;2024-01-30T12:15:13;100774.03;;;1.57;87.46
56074;BME280;41950;55.840;37.442;2024-01-30T12:17:40;100837.72;;;1.95;87.43
56074;BME280;41950;55.840;37.442;2024-01-30T12:20:06;100840.03;;;1.89;87.17
56074;BME280;41950;55.840;37.442;2024-01-30T12:22:36;100846.94;;;1.92;87.48
56074;BME280;41950;55.840;37.442;2024-01-30T12:25:02;100813.13;;;1.76;87.47
56074;BME280;41950;55.840;37.442;2024-01-30T12:27:29;100780.31;;;1.65;87.46
56074;BME280;41950;55.840;37.442;2024-01-30T12:29:58;100783.97;;;1.71;87.00
56074;BME280;41950;55.840;37.442;2024-01-30T12:32:24;100831.69;;;1.93;87.04
56074;BME280;41950;55.840;37.442;2024-01-30T12:34:50;100804.69;;;1.79;87.12
56074;BME280;41950;55.840;37.442;2024-01-30T12:37:15;100836.97;;;1.98;87.13
56074;BME280;41950;55.840;37.442;2024-01-30T12:39:47;100794.34;;;1.76;87.23
56074;BME280;41950;55.840;37.442;2024-01-30T12:42:13;100837.88;;;2.00;87.27
56074;BME280;41950;55.840;37.442;2024-01-30T12:44:39;100808.34;;;1.85;86.92